Sunday, April 22, 2018, 5:50 PM EDT
Back to Local

KFOK, The Gabreski Airport

Location: East Quogue, NY, United States Lat: 40.85
Local Time: 5:50 PM EDT (21:50 GMT) Lon: -72.617
Time Zone: US/Eastern Elev: 65 ft

Show me the last for .
Show Decoded

2018-04-22 16:53 METAR KFOK 222053Z 21011KT 10SM CLR 13/M06 A3036 RMK AO2 SLP281 T01281061 56008
                 =
2018-04-22 15:53 METAR KFOK 221953Z 21010KT 10SM CLR 13/M06 A3036 RMK AO2 SLP282 T01331061 =
2018-04-22 14:53 METAR KFOK 221853Z 23011KT 10SM CLR 14/M06 A3037 RMK AO2 SLP285 T01391061 =
2018-04-22 13:53 METAR KFOK 221753Z 30010G15KT 10SM CLR 16/M12 A3038 RMK AO2 SLP289 T01561117
                 10161 20083 56010 =
2018-04-22 12:53 METAR KFOK 221653Z 31010G20KT 10SM CLR 14/M12 A3039 RMK AO2 SLP290 T01441117 =
2018-04-22 11:53 METAR KFOK 221553Z 33009KT 10SM CLR 14/M12 A3040 RMK AO2 SLP295 T01441117 =
2018-04-22 10:53 METAR KFOK 221453Z 35009KT 10SM CLR 13/M10 A3042 RMK AO2 SLP300 T01331100 53001
                 =
2018-04-22 09:53 METAR KFOK 221353Z 35010KT 10SM CLR 12/M07 A3041 RMK AO2 SLP298 T01221067 =
2018-04-22 08:53 METAR KFOK 221253Z 32008KT 300V010 10SM CLR 11/M04 A3040 RMK AO2 SLP296
                 T01111039 =
2018-04-22 07:53 METAR KFOK 221153Z 33007KT 10SM CLR 08/00 A3041 RMK AO2 SLP299 T00830000 10083
                 21033 53015 =
2018-04-22 06:53 METAR KFOK 221053Z AUTO 34005KT 10SM CLR 01/M03 A3040 RMK AO2 SLP294 T00111028 =
2018-04-22 05:53 METAR KFOK 220953Z AUTO 34006KT 10SM CLR M01/M04 A3038 RMK AO2 SLP287 T10061044
                 =
2018-04-22 04:53 METAR KFOK 220853Z AUTO 34007KT 10SM CLR M03/M06 A3037 RMK AO2 SLP284 T10281061
                 51004 =
2018-04-22 03:53 METAR KFOK 220753Z AUTO 34005KT 10SM CLR M03/M06 A3037 RMK AO2 SLP284 T10281061
                 =
2018-04-22 02:53 METAR KFOK 220653Z AUTO 35004KT 10SM CLR M02/M06 A3036 RMK AO2 SLP281 T10221056
                 =
2018-04-22 01:53 METAR KFOK 220553Z AUTO 35005KT 10SM CLR 00/M04 A3036 RMK AO2 SLP280 T00001039
                 10078 21028 50004 =
2018-04-22 00:53 METAR KFOK 220453Z AUTO 36004KT 10SM CLR M02/M05 A3036 RMK AO2 SLP281 T10221050
                 401561022 =
2018-04-21 23:53 METAR KFOK 220353Z AUTO 00000KT 10SM CLR M01/M04 A3035 RMK AO2 SLP278 T10061039
                 =
2018-04-21 22:53 METAR KFOK 220253Z 00000KT 10SM CLR 01/M03 A3035 RMK AO2 SLP276 T00061033 51013
                 =
2018-04-21 21:53 METAR KFOK 220153Z VRB04KT 10SM CLR 04/M01 A3034 RMK AO2 SLP274 T00391011 =
2018-04-21 20:53 METAR KFOK 220053Z 24006KT 10SM CLR 07/00 A3032 RMK AO2 SLP268 T00670000 =
2018-04-21 19:53 METAR KFOK 212353Z 23007KT 10SM CLR 08/00 A3031 RMK AO2 SLP263 T00780000 10156
                 20078 53014 =
2018-04-21 18:53 METAR KFOK 212253Z 23008G19KT 10SM CLR 08/01 A3028 RMK AO2 SLP255 T00830006 =
2018-04-21 17:53 METAR KFOK 212153Z 22010KT 10SM CLR 11/M01 A3027 RMK AO2 SLP251 T01111006 =

Support USWX by starting your Amazon purchase here.